createdAt,value
2018-08-22T00:01:30.820Z,101511.14
2018-08-22T00:06:34.206Z,101503.17
2018-08-22T00:11:37.534Z,101501.75
2018-08-22T00:16:40.904Z,101497.31
2018-08-22T00:21:44.193Z,101499.41
2018-08-22T00:26:47.541Z,101496.73
2018-08-22T00:31:50.846Z,101495.30
2018-08-22T00:36:54.132Z,101495.56
2018-08-22T00:41:57.521Z,101493.00
2018-08-22T00:47:00.809Z,101489.22
2018-08-22T00:52:04.184Z,101488.45
2018-08-22T00:57:07.464Z,101479.66
2018-08-22T01:02:10.773Z,101472.34
2018-08-22T01:07:14.147Z,101474.52
2018-08-22T01:12:17.477Z,101474.81
2018-08-22T01:17:20.841Z,101470.23
2018-08-22T01:22:24.342Z,101471.36
2018-08-22T01:27:27.745Z,101469.68
2018-08-22T01:32:31.064Z,101468.02
2018-08-22T01:37:34.572Z,101469.16
2018-08-22T01:42:37.925Z,101465.69
2018-08-22T01:47:41.197Z,101456.82
2018-08-22T01:52:44.634Z,101458.05
2018-08-22T01:57:47.925Z,101456.38
2018-08-22T02:02:51.358Z,101461.00
2018-08-22T02:07:54.729Z,101455.47
2018-08-22T02:12:58.225Z,101450.87
2018-08-22T02:18:01.748Z,101452.53
2018-08-22T02:23:05.219Z,101444.86
2018-08-22T02:28:08.590Z,101441.86
2018-08-22T02:33:12.923Z,101439.12
2018-08-22T02:38:22.165Z,101441.03
2018-08-22T02:43:25.877Z,101437.11
2018-08-22T02:48:29.238Z,101435.49
2018-08-22T02:53:32.917Z,101424.64
2018-08-22T02:58:36.312Z,101424.77
2018-08-22T03:03:39.734Z,101422.77
2018-08-22T03:08:43.236Z,101421.88
2018-08-22T03:13:46.600Z,101420.07
2018-08-22T03:18:50.033Z,101426.94
2018-08-22T03:23:53.446Z,101418.73
2018-08-22T03:28:57.028Z,101420.05
2018-08-22T03:34:00.389Z,101417.16
2018-08-22T03:39:05.108Z,101416.33
2018-08-22T03:44:08.466Z,101411.90
2018-08-22T03:49:11.744Z,101415.55
2018-08-22T03:54:15.032Z,101409.16
2018-08-22T03:59:18.341Z,101408.82
2018-08-22T04:04:21.865Z,101411.59
2018-08-22T04:09:26.478Z,101411.21
2018-08-22T04:14:29.835Z,101408.91
2018-08-22T04:19:37.520Z,101408.55
2018-08-22T04:24:40.923Z,101409.44
2018-08-22T04:29:44.378Z,101408.73
2018-08-22T04:34:48.317Z,101409.03
2018-08-22T04:39:51.596Z,101402.90
2018-08-22T04:44:54.887Z,101406.58
2018-08-22T04:49:58.472Z,101408.95
2018-08-22T04:55:01.806Z,101407.44
2018-08-22T05:00:06.616Z,101408.34
2018-08-22T05:05:10.800Z,101408.60
2018-08-22T05:10:14.192Z,101411.16
2018-08-22T05:15:17.485Z,101410.88
2018-08-22T05:20:20.893Z,101407.90
2018-08-22T05:25:27.093Z,101411.89
2018-08-22T05:30:33.009Z,101411.45
2018-08-22T05:35:36.777Z,101406.45
2018-08-22T05:40:40.126Z,101407.98
2018-08-22T05:45:43.512Z,101410.12
2018-08-22T05:50:46.880Z,101404.37
2018-08-22T05:55:50.265Z,101409.06
2018-08-22T06:00:53.489Z,101400.06
2018-08-22T06:05:56.819Z,101395.61
2018-08-22T06:11:00.141Z,101397.54
2018-08-22T06:16:03.469Z,101395.69
2018-08-22T06:21:06.876Z,101397.53
2018-08-22T06:26:10.208Z,101397.78
2018-08-22T06:31:13.554Z,101397.13
2018-08-22T06:36:16.944Z,101396.55
2018-08-22T06:41:20.204Z,101395.95
2018-08-22T06:46:23.513Z,101389.80
2018-08-22T06:51:26.844Z,101388.81
2018-08-22T06:56:30.276Z,101387.58
2018-08-22T07:01:33.614Z,101384.16
2018-08-22T07:06:36.930Z,101382.72
2018-08-22T07:11:40.264Z,101376.59
2018-08-22T07:16:43.677Z,101376.98
2018-08-22T07:21:46.929Z,101372.16
2018-08-22T07:26:50.302Z,101360.94
2018-08-22T07:31:53.657Z,101362.33
2018-08-22T07:36:57.025Z,101360.35
2018-08-22T07:42:00.380Z,101359.08
2018-08-22T07:47:03.993Z,101363.88
2018-08-22T07:52:07.521Z,101362.86
2018-08-22T07:57:11.254Z,101363.52
2018-08-22T08:02:14.688Z,101361.70
2018-08-22T08:07:18.105Z,101367.70
2018-08-22T08:12:25.953Z,101366.16
2018-08-22T08:17:29.246Z,101352.30
2018-08-22T08:22:32.574Z,101336.50
2018-08-22T08:27:35.938Z,101345.23
2018-08-22T08:32:39.312Z,101346.07
2018-08-22T08:37:42.701Z,101341.34
2018-08-22T08:42:46.012Z,101327.21
2018-08-22T08:47:49.419Z,101326.08
2018-08-22T08:52:52.761Z,101325.18
2018-08-22T08:57:56.133Z,101322.56
2018-08-22T09:02:59.473Z,101320.16
2018-08-22T09:08:02.837Z,101308.88
2018-08-22T09:13:09.035Z,101315.27
2018-08-22T09:18:12.386Z,101310.27
2018-08-22T09:23:15.769Z,101311.45
2018-08-22T09:28:19.212Z,101300.44
2018-08-22T09:33:22.576Z,101288.25
2018-08-22T09:38:25.937Z,101295.27
2018-08-22T09:43:29.315Z,101289.30
2018-08-22T09:48:32.661Z,101288.35
2018-08-22T09:53:35.985Z,101279.60
2018-08-22T09:58:39.321Z,101277.16
2018-08-22T10:03:55.698Z,101267.71
2018-08-22T10:09:04.141Z,101271.31
2018-08-22T10:14:07.561Z,101258.88
2018-08-22T10:19:11.055Z,101255.02
2018-08-22T10:24:14.627Z,101250.36
2018-08-22T10:29:17.984Z,101247.19
2018-08-22T10:34:21.356Z,101239.94
2018-08-22T10:39:24.719Z,101233.87
2018-08-22T10:44:28.105Z,101231.34
2018-08-22T10:49:31.713Z,101222.05
2018-08-22T10:54:35.041Z,101217.14
2018-08-22T10:59:38.913Z,101210.55
2018-08-22T11:04:43.043Z,101207.16
2018-08-22T11:09:47.530Z,101203.61
2018-08-22T11:14:51.697Z,101199.00
2018-08-22T11:19:55.727Z,101193.05
2018-08-22T11:25:16.090Z,101197.73
2018-08-22T11:30:36.879Z,101193.67
2018-08-22T11:35:38.831Z,101192.22
2018-08-22T11:40:43.074Z,101194.93
2018-08-22T11:45:46.440Z,101181.27
2018-08-22T11:50:49.923Z,101171.10
2018-08-22T11:55:53.424Z,101164.38
2018-08-22T12:00:56.739Z,101071.78
2018-08-22T12:06:00.195Z,101152.13
2018-08-22T12:11:03.672Z,101158.01
2018-08-22T12:16:07.019Z,101147.97
2018-08-22T12:21:10.390Z,101150.47
2018-08-22T12:26:13.722Z,101139.05
2018-08-22T12:31:17.067Z,101134.52
2018-08-22T12:36:20.428Z,101125.55
2018-08-22T12:41:24.146Z,101115.00
2018-08-22T12:46:27.451Z,101114.94
2018-08-22T12:51:30.840Z,101103.39
2018-08-22T12:56:34.156Z,101102.17
2018-08-22T13:01:37.528Z,101100.53
2018-08-22T13:06:40.938Z,101092.23
2018-08-22T13:11:44.305Z,101088.97
2018-08-22T13:16:47.676Z,101085.70
2018-08-22T13:21:51.023Z,101083.59
2018-08-22T13:26:54.351Z,101084.08
2018-08-22T13:31:57.743Z,101075.84
2018-08-22T13:37:01.067Z,101070.97
2018-08-22T13:42:04.503Z,101065.80
2018-08-22T13:47:07.850Z,101065.55
2018-08-22T13:52:11.299Z,101066.42
2018-08-22T13:57:14.668Z,101061.26
2018-08-22T14:02:18.107Z,101048.07
2018-08-22T14:07:21.718Z,101048.22
2018-08-22T14:12:25.113Z,101048.27
2018-08-22T14:17:28.489Z,101041.98
2018-08-22T14:22:31.878Z,101033.37
2018-08-22T14:27:35.192Z,101026.79
2018-08-22T14:32:38.553Z,101022.47
2018-08-22T14:37:41.924Z,101022.17
2018-08-22T14:42:45.341Z,101020.33
2018-08-22T14:47:48.687Z,101013.34
2018-08-22T14:52:52.074Z,101012.56
2018-08-22T14:57:55.509Z,101009.41
2018-08-22T15:02:59.070Z,101010.67
2018-08-22T15:08:02.215Z,101004.78
2018-08-22T15:13:05.841Z,100999.88
2018-08-22T15:18:09.249Z,101003.61
2018-08-22T15:23:12.661Z,100999.02
2018-08-22T15:28:16.156Z,100995.60
2018-08-22T15:33:19.569Z,100984.70
2018-08-22T15:38:22.942Z,100988.12
2018-08-22T15:43:26.287Z,100981.41
2018-08-22T15:48:29.682Z,100971.63
2018-08-22T15:53:33.055Z,100975.81
2018-08-22T15:58:36.401Z,100973.09
2018-08-22T16:03:39.805Z,100965.13
2018-08-22T16:08:43.005Z,100968.63
2018-08-22T16:13:46.370Z,100957.72
2018-08-22T16:18:49.785Z,100952.13
2018-08-22T16:23:53.109Z,100946.22
2018-08-22T16:28:58.214Z,100939.23
2018-08-22T16:34:01.585Z,100936.67
2018-08-22T16:39:06.437Z,100941.44
2018-08-22T16:44:09.970Z,100933.08
2018-08-22T16:49:13.431Z,100931.78
2018-08-22T16:54:17.106Z,100928.92
2018-08-22T16:59:21.260Z,100926.16
2018-08-22T17:04:24.614Z,100919.97
2018-08-22T17:09:27.963Z,100910.32
2018-08-22T17:14:31.370Z,100917.70
2018-08-22T17:19:34.701Z,100914.59
2018-08-22T17:24:38.089Z,100914.53
2018-08-22T17:29:42.078Z,100911.97
2018-08-22T17:34:45.692Z,100910.34
2018-08-22T17:39:49.148Z,100922.39
2018-08-22T17:44:52.537Z,100916.42
2018-08-22T17:50:07.808Z,100917.92
2018-08-22T17:55:11.228Z,100905.98
2018-08-22T18:00:14.769Z,100911.77
2018-08-22T18:05:18.343Z,100913.63
2018-08-22T18:10:21.937Z,100910.02
2018-08-22T18:15:25.305Z,100910.84
2018-08-22T18:20:28.636Z,100913.02
2018-08-22T18:25:31.978Z,100920.88
2018-08-22T18:30:35.575Z,100918.95
2018-08-22T18:35:43.294Z,100929.65
2018-08-22T18:41:02.389Z,100938.98
2018-08-22T18:46:06.973Z,100939.75
2018-08-22T18:51:10.187Z,100944.14
2018-08-22T18:56:15.856Z,100944.26
2018-08-22T19:01:20.381Z,100949.05
2018-08-22T19:06:24.937Z,100952.97
2018-08-22T19:11:28.957Z,100955.63
2018-08-22T19:16:32.360Z,100959.38
2018-08-22T19:21:35.506Z,100954.34
2018-08-22T19:26:38.669Z,100956.78
2018-08-22T19:31:47.286Z,100953.52
2018-08-22T19:36:50.323Z,100948.03
2018-08-22T19:41:53.593Z,100952.66
2018-08-22T19:46:56.671Z,100949.52
2018-08-22T19:51:59.876Z,100949.95
2018-08-22T19:57:02.924Z,100954.72
2018-08-22T20:02:06.221Z,100957.98
2018-08-22T20:07:09.238Z,100956.00
2018-08-22T20:12:12.794Z,100949.63
2018-08-22T20:17:21.461Z,100957.34
2018-08-22T20:22:30.877Z,100957.20
2018-08-22T20:27:34.050Z,100962.14
2018-08-22T20:32:37.122Z,100961.53
2018-08-22T20:37:40.327Z,100971.09
2018-08-22T20:42:43.836Z,100964.61
2018-08-22T20:47:52.830Z,100971.29
2018-08-22T20:53:04.006Z,100970.05
2018-08-22T20:58:08.765Z,100968.83
2018-08-22T21:03:11.770Z,100971.02
2018-08-22T21:08:14.805Z,100975.53
2018-08-22T21:13:23.461Z,100977.03
2018-08-22T21:18:26.822Z,100983.03
2018-08-22T21:23:29.814Z,100983.55
2018-08-22T21:28:37.509Z,100974.07
2018-08-22T21:33:43.440Z,100978.66
2018-08-22T21:38:46.451Z,100977.88
2018-08-22T21:43:49.548Z,100981.83
2018-08-22T21:48:52.905Z,100995.00
2018-08-22T21:53:56.032Z,100989.23
2018-08-22T21:58:59.054Z,100992.18
2018-08-22T22:04:02.087Z,100984.62
2018-08-22T22:09:05.989Z,100975.24
2018-08-22T22:14:25.531Z,100996.00
2018-08-22T22:19:31.051Z,100994.70
2018-08-22T22:24:44.872Z,100998.44
2018-08-22T22:29:48.014Z,101003.64
2018-08-22T22:34:51.095Z,101015.48
2018-08-22T22:39:54.098Z,101021.49
2018-08-22T22:44:58.876Z,101022.53
2018-08-22T22:50:02.765Z,101022.53
2018-08-22T22:55:07.303Z,101015.69
2018-08-22T23:00:13.110Z,101023.86
2018-08-22T23:05:16.113Z,101025.85
2018-08-22T23:10:19.117Z,101023.07
2018-08-22T23:15:26.468Z,101020.97
2018-08-22T23:20:50.018Z,101021.59
2018-08-22T23:25:53.530Z,101020.45
2018-08-22T23:30:56.507Z,101015.92
2018-08-22T23:35:59.494Z,101012.87
2018-08-22T23:41:02.937Z,101007.69
2018-08-22T23:46:07.658Z,101011.02
2018-08-22T23:51:11.821Z,101011.92
2018-08-22T23:56:24.049Z,101012.78
